Luck, North Carolina
Current Conditions -  °F | °C
As of 10:54 AM on Thursday 23 Oct 2014 (Local Time) from KAVL Reporting Station
Clear Clear  
Wind Chill: 51°   Ceiling: Unl
Heat Index: 51°   Visibility: 10mi
Dew Point: 37°   Wind: 21mph
Humidity: 59%   Direction: 330°NNW
Pressure: 30.14"   Gusts: 29mph
Location:  35.8037°N, 82.868°W
Report Text: KAVL 231454Z 33018G25KT 10SM CLR 11/03 A3014 RMK AO2 PK WND 33028/1433 SLP201 T01060028 58001
Loading
Personal Weather Stations






























Interactive Weather Map
Tropical Storm Tracking
New forecast layout! Learn more

10-Day Weather Forecast

Advertisements
Track Severe Weather on mobile